createdAt,value
2022-10-03T06:43:07.154Z,100.00
2022-10-03T06:46:17.774Z,100.00
2022-10-03T06:49:25.678Z,100.00
2022-10-03T06:52:18.328Z,100.00
2022-10-03T06:55:22.651Z,100.00
2022-10-03T06:58:06.890Z,100.00
2022-10-03T07:00:53.566Z,100.00
2022-10-03T07:03:54.561Z,100.00
2022-10-03T07:06:51.267Z,100.00
2022-10-03T07:10:12.684Z,100.00
2022-10-03T07:13:02.424Z,100.00
2022-10-03T07:16:25.041Z,100.00
2022-10-03T07:19:16.380Z,100.00
2022-10-03T07:22:26.938Z,100.00
2022-10-03T07:25:25.278Z,100.00
2022-10-03T07:28:14.327Z,100.00
2022-10-03T07:31:02.417Z,100.00
2022-10-03T07:33:52.284Z,100.00
2022-10-03T07:36:50.688Z,100.00
2022-10-03T07:39:50.922Z,99.77
2022-10-03T07:42:52.628Z,100.00
2022-10-03T07:45:34.928Z,100.00
2022-10-03T07:48:35.039Z,100.00
2022-10-03T07:51:24.461Z,99.01
2022-10-03T07:54:27.664Z,97.35
2022-10-03T07:57:24.707Z,97.74
2022-10-03T08:00:17.151Z,93.31
2022-10-03T08:03:17.831Z,96.38
2022-10-03T08:06:19.474Z,97.35
2022-10-03T08:09:18.867Z,97.58
2022-10-03T08:12:16.617Z,99.98
2022-10-03T08:14:57.076Z,89.61
2022-10-03T08:17:55.630Z,84.19
2022-10-03T08:20:43.501Z,92.59
2022-10-03T08:23:34.105Z,88.04
2022-10-03T08:26:17.268Z,91.15
2022-10-03T08:29:12.586Z,100.00
2022-10-03T08:32:18.746Z,100.00
2022-10-03T08:35:20.735Z,100.00
2022-10-03T08:38:15.609Z,100.00
2022-10-03T08:41:33.270Z,100.00
2022-10-03T08:44:30.520Z,100.00
2022-10-03T08:47:29.168Z,100.00
2022-10-03T08:50:34.340Z,100.00
2022-10-03T08:53:49.735Z,100.00
2022-10-03T08:56:28.347Z,99.92
2022-10-03T08:59:28.768Z,97.54
2022-10-03T09:02:22.206Z,96.54
2022-10-03T09:05:31.479Z,94.91
2022-10-03T09:08:39.640Z,89.62
2022-10-03T09:11:45.303Z,86.19
2022-10-03T09:14:37.128Z,91.75
2022-10-03T09:17:34.665Z,94.97
2022-10-03T09:20:20.819Z,93.11
2022-10-03T09:23:20.143Z,90.38
2022-10-03T09:26:11.128Z,84.69
2022-10-03T09:29:10.566Z,81.58
2022-10-03T09:32:06.823Z,82.44
2022-10-03T09:35:10.686Z,82.04
2022-10-03T09:38:05.079Z,82.38
2022-10-03T09:41:21.543Z,70.00
2022-10-03T09:44:13.468Z,65.77
2022-10-03T09:47:23.804Z,55.11
2022-10-03T09:50:25.486Z,61.94
2022-10-03T09:53:24.546Z,61.13
2022-10-03T09:56:22.497Z,65.12
2022-10-03T09:59:19.926Z,48.42
2022-10-03T10:01:55.291Z,52.40
2022-10-03T10:04:56.315Z,56.65
2022-10-03T10:07:59.792Z,60.48
2022-10-03T10:11:09.684Z,55.91
2022-10-03T10:14:08.821Z,56.61
2022-10-03T10:16:53.477Z,64.19
2022-10-03T10:19:53.040Z,67.97
2022-10-03T10:22:52.043Z,68.81
2022-10-03T10:25:48.753Z,66.59
2022-10-03T10:28:59.418Z,65.46
2022-10-03T10:32:01.333Z,62.37
2022-10-03T10:35:17.591Z,67.17
2022-10-03T10:38:25.925Z,66.98
2022-10-03T10:41:32.589Z,66.44
2022-10-03T10:44:33.968Z,67.13
2022-10-03T10:47:44.729Z,67.52
2022-10-03T10:50:44.808Z,64.70
2022-10-03T10:53:50.013Z,66.03
2022-10-03T10:57:01.418Z,69.24
2022-10-03T11:00:00.788Z,65.24
2022-10-03T11:03:06.265Z,60.61
2022-10-03T11:05:54.310Z,49.56
2022-10-03T11:09:00.011Z,41.94
2022-10-03T11:12:18.065Z,32.98
2022-10-03T11:15:23.735Z,32.59
2022-10-03T11:18:30.953Z,34.09
2022-10-03T11:21:38.794Z,38.07
2022-10-03T11:24:26.657Z,31.24
2022-10-03T11:27:34.472Z,34.94
2022-10-03T11:30:19.549Z,32.41
2022-10-03T11:33:27.736Z,33.90
2022-10-03T11:36:28.962Z,31.00
2022-10-03T11:39:05.570Z,33.42
2022-10-03T11:41:47.711Z,32.65
2022-10-03T11:44:23.572Z,31.87
2022-10-03T11:47:16.514Z,29.42
2022-10-03T11:50:13.175Z,26.70
2022-10-03T11:52:55.905Z,30.49
2022-10-03T11:55:32.028Z,33.43
2022-10-03T11:58:15.107Z,38.24
2022-10-03T12:00:48.039Z,43.83
2022-10-03T12:03:27.120Z,46.10
2022-10-03T12:06:13.711Z,57.92
2022-10-03T12:08:59.088Z,63.99
2022-10-03T12:11:31.080Z,66.06
2022-10-03T12:14:15.388Z,67.20
2022-10-03T12:17:03.181Z,69.22
2022-10-03T12:19:35.944Z,69.36
2022-10-03T12:22:18.052Z,67.66
2022-10-03T12:24:49.788Z,66.07
2022-10-03T12:27:30.128Z,66.49
2022-10-03T12:30:01.525Z,65.93
2022-10-03T12:32:49.550Z,62.41
2022-10-03T12:35:34.812Z,60.72
2022-10-03T12:38:24.655Z,54.32
2022-10-03T12:41:04.689Z,53.34
2022-10-03T12:43:50.979Z,52.29
2022-10-03T12:46:30.909Z,50.25
2022-10-03T12:49:05.020Z,49.31
2022-10-03T12:51:52.259Z,53.11
2022-10-03T12:54:39.292Z,48.91
2022-10-03T12:57:47.425Z,49.64
2022-10-03T13:00:22.270Z,49.26
2022-10-03T13:03:07.404Z,47.44
2022-10-03T13:05:53.620Z,44.97
2022-10-03T13:08:39.881Z,45.96
2022-10-03T13:11:26.003Z,48.36
2022-10-03T13:14:08.945Z,48.91
2022-10-03T13:16:44.065Z,48.78
2022-10-03T13:19:17.594Z,50.86
2022-10-03T13:22:06.449Z,49.83
2022-10-03T13:24:40.487Z,53.72
2022-10-03T13:27:32.419Z,53.97
2022-10-03T13:30:07.165Z,53.37
2022-10-03T13:32:37.839Z,49.45
2022-10-03T13:35:37.380Z,45.51
2022-10-03T13:38:22.196Z,47.04
2022-10-03T13:41:00.170Z,50.09
2022-10-03T13:43:35.816Z,53.73
2022-10-03T13:46:12.090Z,51.49
2022-10-03T13:48:42.566Z,50.16
2022-10-03T13:51:23.096Z,47.83
2022-10-03T13:54:01.274Z,45.88
2022-10-03T13:56:41.894Z,44.90
2022-10-03T13:59:28.721Z,45.80
2022-10-03T14:02:05.127Z,47.38
2022-10-03T14:05:01.679Z,48.27
2022-10-03T14:07:39.797Z,48.45
2022-10-03T14:10:26.446Z,51.34
2022-10-03T14:13:19.782Z,51.50
2022-10-03T14:15:54.047Z,50.41
2022-10-03T14:18:53.588Z,51.97
2022-10-03T14:21:41.937Z,53.22
2022-10-03T14:24:26.458Z,52.94
2022-10-03T14:27:01.274Z,53.62
2022-10-03T14:29:37.928Z,54.77
2022-10-03T14:32:42.239Z,53.24
2022-10-03T14:35:10.774Z,54.55
2022-10-03T14:37:45.866Z,56.38
2022-10-03T14:40:20.009Z,54.72
2022-10-03T14:43:09.699Z,55.61
2022-10-03T14:45:44.805Z,54.15
2022-10-03T14:48:19.219Z,54.26
2022-10-03T14:50:54.654Z,54.72
2022-10-03T14:53:29.893Z,55.74
2022-10-03T14:56:01.848Z,53.90
2022-10-03T14:58:33.666Z,54.79
2022-10-03T15:01:14.422Z,53.35
2022-10-03T15:03:46.801Z,54.64
2022-10-03T15:06:53.687Z,53.59
2022-10-03T15:09:43.460Z,52.18
2022-10-03T15:12:17.399Z,48.53
2022-10-03T15:14:50.461Z,48.09
2022-10-03T15:17:22.808Z,50.10
2022-10-03T15:19:55.222Z,47.87
2022-10-03T15:22:36.895Z,44.92
2022-10-03T15:25:11.105Z,42.47
2022-10-03T15:27:42.659Z,42.02
2022-10-03T15:30:22.394Z,45.63
2022-10-03T15:32:52.399Z,50.31
2022-10-03T15:35:26.396Z,50.54
2022-10-03T15:37:59.731Z,47.36
2022-10-03T15:40:33.950Z,45.13
2022-10-03T15:43:09.378Z,47.18
2022-10-03T15:45:39.760Z,46.23
2022-10-03T15:48:14.239Z,45.99
2022-10-03T15:50:43.825Z,42.53
2022-10-03T15:53:38.145Z,45.25
2022-10-03T15:56:12.335Z,43.61
2022-10-03T15:58:48.236Z,44.72
2022-10-03T16:01:21.935Z,44.78
2022-10-03T16:03:53.685Z,44.29
2022-10-03T16:06:24.519Z,43.18
2022-10-03T16:09:06.190Z,41.25
2022-10-03T16:11:45.648Z,39.62
2022-10-03T16:14:21.872Z,42.13
2022-10-03T16:16:55.029Z,45.30
2022-10-03T16:19:31.772Z,49.66
2022-10-03T16:22:12.846Z,51.01
2022-10-03T16:24:51.511Z,51.20
2022-10-03T16:27:24.848Z,50.34
2022-10-03T16:30:16.143Z,51.42
2022-10-03T16:32:51.605Z,53.74
2022-10-03T16:35:33.793Z,53.99
2022-10-03T16:38:04.708Z,55.90
2022-10-03T16:46:37.792Z,61.77
2022-10-03T16:49:35.283Z,63.48
2022-10-03T16:52:07.709Z,65.60
2022-10-03T16:54:39.098Z,67.52
2022-10-03T16:57:13.845Z,68.76
2022-10-03T16:59:48.316Z,70.34
2022-10-03T17:02:22.404Z,71.11
2022-10-03T17:04:56.042Z,71.43
2022-10-03T17:07:26.206Z,71.98
2022-10-03T17:09:57.297Z,72.16
2022-10-03T17:12:30.517Z,72.79
2022-10-03T17:15:05.914Z,73.35
2022-10-03T17:17:46.918Z,74.37
2022-10-03T17:20:20.902Z,74.97
2022-10-03T17:22:57.299Z,75.75
2022-10-03T17:25:43.362Z,76.89
2022-10-03T17:28:17.482Z,77.73
2022-10-03T17:30:51.266Z,78.47
2022-10-03T17:33:25.769Z,78.74
2022-10-03T17:36:05.167Z,79.09
2022-10-03T17:38:49.682Z,80.52
2022-10-03T17:41:23.712Z,81.18
2022-10-03T17:44:00.792Z,82.00
2022-10-03T17:46:41.337Z,83.60
2022-10-03T17:49:23.212Z,83.77
2022-10-03T17:51:54.004Z,85.36
2022-10-03T17:54:27.873Z,85.74
2022-10-03T17:57:06.145Z,85.74
2022-10-03T17:59:44.410Z,86.09
2022-10-03T18:02:20.402Z,86.74
2022-10-03T18:05:00.422Z,87.30
2022-10-03T18:07:29.574Z,89.09
2022-10-03T18:09:57.737Z,90.40
2022-10-03T18:12:33.484Z,91.81
2022-10-03T18:15:23.559Z,91.93
2022-10-03T18:18:09.178Z,92.50
2022-10-03T18:20:48.655Z,92.78
2022-10-03T18:23:49.819Z,93.51
2022-10-03T18:26:24.852Z,93.42
2022-10-03T18:29:03.017Z,94.03
2022-10-03T18:31:35.108Z,94.37
2022-10-03T18:34:13.759Z,94.82
2022-10-03T18:36:48.519Z,94.95
2022-10-03T18:39:19.700Z,94.75
2022-10-03T18:41:50.390Z,95.20
2022-10-03T18:44:20.405Z,96.31
2022-10-03T18:46:54.651Z,96.93
2022-10-03T18:49:35.140Z,98.35
2022-10-03T18:52:12.883Z,99.83
2022-10-03T18:54:53.964Z,100.00
2022-10-03T18:57:27.862Z,100.00
2022-10-03T19:00:02.335Z,100.00
2022-10-03T19:02:36.474Z,99.77
2022-10-03T19:05:12.999Z,99.32
2022-10-03T19:07:52.055Z,100.00
2022-10-03T19:10:28.769Z,100.00
2022-10-03T19:13:04.932Z,100.00
2022-10-03T19:15:57.201Z,100.00
2022-10-03T19:18:28.430Z,100.00
2022-10-03T19:20:59.526Z,100.00
2022-10-03T19:23:36.353Z,100.00
2022-10-03T19:26:11.204Z,100.00
2022-10-03T19:28:46.031Z,100.00
2022-10-03T19:31:19.270Z,100.00
2022-10-03T19:33:52.257Z,100.00
2022-10-03T19:36:23.708Z,100.00
2022-10-03T19:38:54.857Z,100.00
2022-10-03T19:41:29.106Z,100.00
2022-10-03T19:44:03.358Z,100.00
2022-10-03T19:46:45.596Z,100.00
2022-10-03T19:49:35.502Z,100.00
2022-10-03T19:52:28.988Z,100.00
2022-10-03T19:55:06.018Z,100.00
2022-10-03T19:57:41.566Z,100.00
2022-10-03T20:00:23.383Z,100.00
2022-10-03T20:02:57.779Z,100.00
2022-10-03T20:05:33.457Z,100.00
2022-10-03T20:08:08.906Z,100.00
2022-10-03T20:11:16.204Z,100.00
2022-10-03T20:13:47.442Z,100.00
2022-10-03T20:16:17.675Z,100.00
2022-10-03T20:18:50.721Z,100.00
2022-10-03T20:21:21.606Z,100.00
2022-10-03T20:23:50.020Z,100.00
2022-10-03T20:26:26.067Z,100.00
2022-10-03T20:29:12.689Z,100.00
2022-10-03T20:31:41.692Z,100.00
2022-10-03T20:34:15.654Z,100.00
2022-10-03T20:36:50.595Z,100.00
2022-10-03T20:39:24.535Z,100.00
2022-10-03T20:42:01.358Z,100.00
2022-10-03T20:44:50.150Z,100.00
2022-10-03T20:47:38.279Z,100.00
2022-10-03T20:50:15.526Z,100.00
2022-10-03T20:52:49.678Z,100.00
2022-10-03T20:55:21.497Z,100.00
2022-10-03T20:57:59.403Z,100.00
2022-10-03T21:00:28.370Z,100.00
2022-10-03T21:03:02.849Z,100.00
2022-10-03T21:05:37.210Z,100.00
2022-10-03T21:08:12.671Z,100.00
2022-10-03T21:10:45.938Z,100.00
2022-10-03T21:13:21.164Z,100.00
2022-10-03T21:15:53.521Z,100.00
2022-10-03T21:18:24.485Z,100.00
2022-10-03T21:21:03.344Z,100.00
2022-10-03T21:28:26.962Z,100.00
2022-10-03T21:31:20.957Z,100.00
2022-10-03T21:33:58.347Z,100.00
2022-10-03T21:36:32.883Z,100.00
2022-10-03T21:39:14.126Z,100.00
2022-10-03T21:41:53.722Z,100.00
2022-10-03T21:44:48.003Z,100.00
2022-10-03T21:47:31.237Z,100.00
2022-10-03T21:50:02.627Z,100.00
2022-10-03T21:52:42.296Z,100.00
2022-10-03T21:55:45.425Z,100.00
2022-10-03T21:58:31.167Z,100.00
2022-10-03T22:01:08.045Z,100.00
2022-10-03T22:03:42.795Z,100.00
2022-10-03T22:06:19.685Z,100.00
2022-10-03T22:08:50.647Z,100.00
2022-10-03T22:11:32.041Z,100.00
2022-10-03T22:14:11.193Z,100.00
2022-10-03T22:16:46.062Z,100.00
2022-10-03T22:19:22.394Z,100.00
2022-10-03T22:22:10.836Z,100.00
2022-10-03T22:24:52.450Z,100.00
2022-10-03T22:27:26.562Z,100.00
2022-10-03T22:30:05.237Z,100.00
2022-10-03T22:32:41.780Z,100.00
2022-10-03T22:35:26.578Z,100.00
2022-10-03T22:37:56.136Z,100.00
2022-10-03T22:40:25.394Z,100.00
2022-10-03T22:42:56.685Z,100.00
2022-10-03T22:45:27.923Z,100.00
2022-10-03T22:47:59.532Z,100.00
2022-10-03T22:50:33.083Z,100.00
2022-10-03T22:53:02.346Z,100.00
2022-10-03T22:55:32.834Z,100.00
2022-10-03T22:58:02.907Z,100.00
2022-10-03T23:00:35.948Z,100.00
2022-10-03T23:03:11.520Z,100.00
2022-10-03T23:06:05.146Z,100.00
2022-10-03T23:08:46.686Z,100.00
2022-10-03T23:11:21.608Z,100.00
2022-10-03T23:13:50.782Z,100.00
2022-10-03T23:16:40.032Z,100.00
2022-10-03T23:19:24.975Z,100.00
2022-10-03T23:21:57.895Z,100.00
2022-10-03T23:24:32.189Z,100.00
2022-10-03T23:27:30.991Z,100.00
2022-10-03T23:30:35.992Z,100.00
2022-10-03T23:33:04.424Z,100.00
2022-10-03T23:35:41.557Z,100.00
2022-10-03T23:38:59.887Z,100.00
2022-10-03T23:41:44.266Z,100.00
2022-10-03T23:44:49.505Z,100.00
2022-10-03T23:47:21.300Z,100.00
2022-10-03T23:49:52.076Z,100.00
2022-10-03T23:52:26.140Z,100.00
2022-10-03T23:54:56.434Z,100.00
2022-10-03T23:57:31.506Z,100.00
